createdAt,value
2023-05-18T00:01:16.388Z,8.30
2023-05-18T00:03:43.286Z,8.30
2023-05-18T00:06:10.324Z,8.30
2023-05-18T00:08:38.307Z,8.30
2023-05-18T00:11:06.101Z,8.30
2023-05-18T00:13:32.827Z,8.30
2023-05-18T00:15:59.653Z,8.30
2023-05-18T00:18:26.652Z,8.30
2023-05-18T00:21:00.349Z,8.30
2023-05-18T00:23:32.857Z,8.30
2023-05-18T00:26:01.285Z,8.20
2023-05-18T00:28:28.746Z,8.20
2023-05-18T00:30:56.068Z,8.20
2023-05-18T00:33:23.211Z,8.20
2023-05-18T00:35:49.876Z,8.20
2023-05-18T00:38:16.622Z,8.20
2023-05-18T00:40:43.671Z,8.20
2023-05-18T00:43:10.629Z,8.20
2023-05-18T00:45:37.311Z,8.20
2023-05-18T00:48:04.459Z,8.10
2023-05-18T00:50:31.751Z,8.10
2023-05-18T00:52:58.943Z,8.10
2023-05-18T00:55:27.834Z,8.10
2023-05-18T00:57:56.418Z,8.10
2023-05-18T01:00:23.829Z,8.10
2023-05-18T01:02:51.150Z,8.00
2023-05-18T01:05:18.115Z,8.10
2023-05-18T01:07:44.840Z,8.00
2023-05-18T01:10:13.390Z,8.00
2023-05-18T01:12:49.125Z,8.00
2023-05-18T01:15:20.499Z,8.10
2023-05-18T01:18:05.643Z,8.00
2023-05-18T01:20:48.917Z,8.00
2023-05-18T01:23:20.446Z,8.10
2023-05-18T01:25:56.213Z,8.10
2023-05-18T01:28:30.260Z,8.00
2023-05-18T01:30:58.198Z,8.00
2023-05-18T01:33:25.583Z,8.00
2023-05-18T01:35:52.479Z,8.10
2023-05-18T01:38:23.914Z,8.00
2023-05-18T01:41:18.481Z,8.10
2023-05-18T01:44:07.800Z,8.10
2023-05-18T01:46:46.364Z,8.00
2023-05-18T01:49:31.210Z,8.00
2023-05-18T01:52:03.199Z,8.10
2023-05-18T01:54:31.880Z,8.00
2023-05-18T01:56:59.098Z,8.00
2023-05-18T01:59:26.112Z,8.10
2023-05-18T02:01:59.509Z,8.00
2023-05-18T02:04:27.456Z,8.00
2023-05-18T02:06:54.416Z,8.00
2023-05-18T02:09:21.814Z,8.00
2023-05-18T02:11:49.370Z,8.10
2023-05-18T02:14:16.248Z,8.00
2023-05-18T02:16:47.464Z,8.00
2023-05-18T02:19:14.786Z,8.00
2023-05-18T02:21:43.393Z,8.00
2023-05-18T02:24:10.754Z,8.00
2023-05-18T02:26:37.563Z,8.00
2023-05-18T02:29:09.352Z,8.00
2023-05-18T02:31:36.675Z,8.00
2023-05-18T02:34:03.480Z,8.00
2023-05-18T02:36:37.168Z,8.00
2023-05-18T02:39:04.811Z,7.90
2023-05-18T02:41:31.549Z,8.00
2023-05-18T02:43:58.196Z,7.90
2023-05-18T02:46:25.103Z,7.90
2023-05-18T02:48:51.891Z,7.90
2023-05-18T02:51:18.581Z,7.90
2023-05-18T02:53:45.229Z,7.90
2023-05-18T02:56:12.907Z,7.90
2023-05-18T02:58:40.079Z,7.90
2023-05-18T03:01:09.448Z,7.90
2023-05-18T03:03:36.136Z,7.90
2023-05-18T03:06:02.857Z,7.80
2023-05-18T03:08:31.398Z,7.80
2023-05-18T03:10:58.784Z,7.80
2023-05-18T03:13:26.123Z,7.80
2023-05-18T03:15:52.773Z,7.80
2023-05-18T03:18:19.367Z,7.80
2023-05-18T03:20:46.228Z,7.80
2023-05-18T03:23:12.905Z,7.80
2023-05-18T03:25:39.534Z,7.80
2023-05-18T03:28:06.480Z,7.80
2023-05-18T03:30:33.792Z,7.80
2023-05-18T03:33:03.577Z,7.90
2023-05-18T03:35:30.556Z,7.90
2023-05-18T03:37:57.392Z,7.90
2023-05-18T03:40:25.198Z,7.90
2023-05-18T03:42:51.909Z,7.90
2023-05-18T03:45:19.026Z,7.90
2023-05-18T03:47:45.797Z,7.90
2023-05-18T03:50:12.671Z,7.90
2023-05-18T03:52:39.909Z,8.00
2023-05-18T03:55:06.914Z,8.00
2023-05-18T03:57:33.576Z,8.00
2023-05-18T04:00:00.734Z,8.00
2023-05-18T04:02:27.565Z,8.00
2023-05-18T04:04:54.401Z,8.00
2023-05-18T04:07:24.274Z,8.10
2023-05-18T04:09:55.562Z,8.10
2023-05-18T04:12:23.017Z,8.10
2023-05-18T04:14:49.774Z,8.20
2023-05-18T04:17:23.265Z,8.20
2023-05-18T04:19:50.572Z,8.20
2023-05-18T04:22:17.358Z,8.30
2023-05-18T04:24:47.266Z,8.30
2023-05-18T04:27:15.076Z,8.30
2023-05-18T04:29:43.804Z,8.40
2023-05-18T04:32:10.748Z,8.40
2023-05-18T04:34:37.592Z,8.50
2023-05-18T04:37:07.856Z,8.50
2023-05-18T04:39:35.048Z,8.60
2023-05-18T04:42:04.516Z,8.70
2023-05-18T04:44:34.872Z,8.70
2023-05-18T04:47:01.570Z,8.80
2023-05-18T04:49:28.357Z,8.80
2023-05-18T04:51:56.193Z,8.90
2023-05-18T04:54:24.333Z,8.90
2023-05-18T04:56:52.312Z,9.00
2023-05-18T04:59:19.250Z,9.10
2023-05-18T05:01:46.347Z,9.10
2023-05-18T05:04:13.591Z,9.20
2023-05-18T05:06:40.289Z,9.20
2023-05-18T05:09:07.216Z,9.30
2023-05-18T05:11:34.601Z,9.40
2023-05-18T05:14:03.039Z,9.40
2023-05-18T05:16:29.844Z,9.50
2023-05-18T05:18:56.686Z,9.60
2023-05-18T05:21:23.537Z,9.60
2023-05-18T05:23:50.230Z,9.70
2023-05-18T05:26:17.503Z,9.70
2023-05-18T05:28:44.217Z,9.80
2023-05-18T05:31:11.035Z,10.00
2023-05-18T05:33:38.003Z,10.00
2023-05-18T05:36:05.342Z,10.10
2023-05-18T05:38:32.511Z,10.20
2023-05-18T05:40:59.148Z,10.30
2023-05-18T05:43:25.967Z,10.50
2023-05-18T05:45:52.741Z,10.60
2023-05-18T05:48:19.348Z,10.70
2023-05-18T05:50:46.495Z,10.80
2023-05-18T05:53:13.195Z,10.80
2023-05-18T05:55:41.240Z,10.90
2023-05-18T05:58:09.349Z,10.90
2023-05-18T06:00:36.633Z,11.00
2023-05-18T06:03:03.660Z,11.10
2023-05-18T06:05:30.475Z,11.20
2023-05-18T06:07:57.587Z,11.20
2023-05-18T06:10:24.287Z,11.30
2023-05-18T06:12:50.965Z,11.30
2023-05-18T06:15:18.582Z,11.30
2023-05-18T06:17:45.467Z,11.30
2023-05-18T06:20:12.718Z,11.30
2023-05-18T06:22:39.672Z,11.30
2023-05-18T06:25:06.858Z,11.30
2023-05-18T06:27:33.450Z,11.30
2023-05-18T06:30:00.205Z,11.30
2023-05-18T06:32:26.951Z,11.40
2023-05-18T06:34:53.610Z,11.50
2023-05-18T06:37:21.256Z,11.70
2023-05-18T06:39:47.866Z,11.80
2023-05-18T06:42:14.498Z,12.00
2023-05-18T06:44:41.105Z,12.20
2023-05-18T06:47:07.911Z,12.40
2023-05-18T06:49:34.518Z,12.60
2023-05-18T06:52:01.175Z,12.60
2023-05-18T06:54:29.408Z,12.60
2023-05-18T06:56:56.128Z,12.70
2023-05-18T06:59:23.038Z,12.80
2023-05-18T07:01:49.709Z,13.00
2023-05-18T07:04:17.928Z,13.10
2023-05-18T07:06:44.897Z,13.10
2023-05-18T07:09:12.010Z,13.00
2023-05-18T07:11:40.341Z,13.30
2023-05-18T07:14:07.094Z,13.40
2023-05-18T07:16:34.193Z,13.60
2023-05-18T07:19:00.948Z,13.60
2023-05-18T07:21:27.688Z,13.70
2023-05-18T07:23:54.299Z,13.80
2023-05-18T07:26:22.403Z,13.90
2023-05-18T07:28:49.550Z,14.00
2023-05-18T07:31:16.627Z,14.10
2023-05-18T07:33:44.527Z,14.20
2023-05-18T07:36:11.360Z,14.40
2023-05-18T07:38:38.042Z,14.50
2023-05-18T07:41:04.732Z,14.70
2023-05-18T07:43:31.406Z,14.80
2023-05-18T07:45:58.012Z,15.00
2023-05-18T07:48:24.665Z,15.20
2023-05-18T07:50:51.594Z,15.40
2023-05-18T07:53:18.524Z,15.50
2023-05-18T07:55:45.602Z,15.50
2023-05-18T07:58:13.286Z,15.50
2023-05-18T08:00:39.907Z,15.60
2023-05-18T08:03:06.872Z,15.70
2023-05-18T08:05:33.729Z,15.80
2023-05-18T08:08:00.556Z,16.00
2023-05-18T08:10:27.223Z,16.10
2023-05-18T08:12:53.908Z,16.10
2023-05-18T08:15:20.792Z,15.90
2023-05-18T08:17:47.499Z,15.90
2023-05-18T08:20:14.228Z,16.10
2023-05-18T08:22:41.028Z,16.10
2023-05-18T08:25:08.039Z,16.30
2023-05-18T08:27:34.635Z,16.40
2023-05-18T08:30:01.611Z,16.50
2023-05-18T08:32:28.288Z,16.50
2023-05-18T08:34:54.908Z,16.60
2023-05-18T08:37:22.089Z,16.80
2023-05-18T08:39:48.793Z,17.00
2023-05-18T08:42:48.508Z,17.20
2023-05-18T08:45:23.573Z,17.40
2023-05-18T08:47:51.427Z,17.40
2023-05-18T08:50:23.460Z,17.40
2023-05-18T08:52:55.332Z,17.50
2023-05-18T08:55:23.646Z,17.40
2023-05-18T08:57:56.067Z,17.40
2023-05-18T09:00:24.654Z,17.20
2023-05-18T09:02:51.965Z,17.10
2023-05-18T09:05:20.297Z,17.10
2023-05-18T09:07:47.465Z,17.00
2023-05-18T09:10:15.319Z,16.90
2023-05-18T09:12:43.725Z,17.00
2023-05-18T09:15:11.268Z,17.30
2023-05-18T09:17:37.957Z,17.50
2023-05-18T09:20:08.447Z,17.80
2023-05-18T09:22:41.228Z,18.30
2023-05-18T09:25:11.769Z,20.70
2023-05-18T09:27:39.131Z,21.90
2023-05-18T09:30:11.103Z,21.40
2023-05-18T09:32:38.086Z,22.20
2023-05-18T09:35:06.406Z,22.90
2023-05-18T09:37:33.956Z,22.90
2023-05-18T09:40:04.915Z,23.00
2023-05-18T09:42:37.468Z,22.60
2023-05-18T09:45:28.493Z,22.20
2023-05-18T09:47:55.439Z,21.70
2023-05-18T09:50:26.071Z,21.20
2023-05-18T09:52:52.835Z,20.80
2023-05-18T09:55:20.367Z,20.40
2023-05-18T09:57:49.531Z,20.10
2023-05-18T10:00:17.159Z,20.70
2023-05-18T10:02:52.080Z,21.90
2023-05-18T10:05:23.530Z,24.10
2023-05-18T10:07:51.509Z,26.50
2023-05-18T10:10:20.313Z,28.70
2023-05-18T10:12:48.039Z,30.40
2023-05-18T10:15:16.331Z,31.50
2023-05-18T10:17:44.934Z,32.60
2023-05-18T10:20:21.368Z,33.20
2023-05-18T10:22:49.076Z,33.90
2023-05-18T10:25:19.972Z,34.00
2023-05-18T10:27:49.181Z,34.30
2023-05-18T10:30:17.687Z,34.00
2023-05-18T10:32:45.579Z,33.80
2023-05-18T10:35:13.970Z,33.20
2023-05-18T10:37:47.747Z,33.00
2023-05-18T10:40:15.676Z,32.10
2023-05-18T10:42:43.414Z,32.00
2023-05-18T10:45:10.623Z,32.30
2023-05-18T10:47:42.382Z,32.50
2023-05-18T10:50:09.898Z,32.30
2023-05-18T10:52:41.398Z,32.00
2023-05-18T10:55:09.046Z,31.90
2023-05-18T10:57:40.735Z,32.30
2023-05-18T11:00:10.636Z,33.10
2023-05-18T11:02:42.124Z,33.70
2023-05-18T11:05:10.256Z,33.50
2023-05-18T11:07:37.488Z,33.30
2023-05-18T11:10:10.050Z,33.60
2023-05-18T11:12:38.658Z,33.80
2023-05-18T11:15:05.957Z,34.00
2023-05-18T11:17:32.899Z,34.10
2023-05-18T11:20:05.524Z,34.30
2023-05-18T11:22:59.151Z,33.90
2023-05-18T11:25:25.794Z,33.10
2023-05-18T11:27:53.504Z,32.50
2023-05-18T11:30:30.313Z,31.90
2023-05-18T11:33:14.871Z,31.80
2023-05-18T11:36:09.082Z,31.90
2023-05-18T11:38:55.595Z,32.00
2023-05-18T11:41:38.921Z,32.10
2023-05-18T11:44:11.745Z,31.40
2023-05-18T11:46:50.732Z,30.50
2023-05-18T11:49:19.929Z,30.40
2023-05-18T11:52:09.403Z,30.50
2023-05-18T11:54:42.674Z,31.00
2023-05-18T11:57:11.119Z,31.30
2023-05-18T11:59:41.012Z,31.30
2023-05-18T12:02:11.374Z,30.70
2023-05-18T12:04:44.830Z,30.40
2023-05-18T12:07:11.958Z,29.60
2023-05-18T12:09:46.931Z,29.30
2023-05-18T12:12:17.249Z,29.40
2023-05-18T12:14:47.163Z,29.50
2023-05-18T12:17:14.004Z,29.60
2023-05-18T12:19:44.783Z,29.90
2023-05-18T12:22:11.993Z,29.60
2023-05-18T12:24:43.250Z,29.80
2023-05-18T12:27:11.967Z,29.90
2023-05-18T12:29:42.817Z,30.00
2023-05-18T12:32:11.911Z,29.30
2023-05-18T12:34:39.696Z,28.80
2023-05-18T12:37:07.915Z,28.60
2023-05-18T12:39:35.106Z,28.60
2023-05-18T12:42:15.212Z,28.30
2023-05-18T12:44:45.828Z,27.90
2023-05-18T12:47:13.555Z,27.20
2023-05-18T12:49:42.324Z,26.30
2023-05-18T12:52:13.713Z,25.10
2023-05-18T12:54:55.168Z,24.20
2023-05-18T12:57:25.463Z,23.30
2023-05-18T12:59:56.537Z,22.90
2023-05-18T13:02:35.002Z,22.70
2023-05-18T13:05:10.014Z,22.90
2023-05-18T13:07:44.236Z,23.10
2023-05-18T13:10:13.209Z,23.10
2023-05-18T13:12:48.786Z,22.90
2023-05-18T13:15:22.539Z,22.80
2023-05-18T13:17:57.172Z,23.10
2023-05-18T13:20:36.599Z,23.40
2023-05-18T13:23:06.798Z,23.70
2023-05-18T13:25:33.759Z,23.70
2023-05-18T13:28:02.780Z,23.70
2023-05-18T13:30:30.147Z,23.60
2023-05-18T13:32:57.743Z,23.10
2023-05-18T13:35:24.440Z,23.00
2023-05-18T13:37:52.072Z,23.10
2023-05-18T13:40:20.588Z,23.10
2023-05-18T13:42:47.721Z,22.80
2023-05-18T13:45:16.276Z,22.60
2023-05-18T13:47:45.548Z,22.50
2023-05-18T13:50:12.323Z,22.50
2023-05-18T13:52:38.956Z,22.20
2023-05-18T13:55:07.462Z,21.80
2023-05-18T13:57:34.629Z,21.20
2023-05-18T14:00:11.279Z,20.80
2023-05-18T14:02:38.018Z,20.60
2023-05-18T14:05:05.157Z,20.60
2023-05-18T14:07:31.800Z,20.30
2023-05-18T14:09:58.403Z,20.30
2023-05-18T14:12:25.118Z,20.30
2023-05-18T14:14:51.731Z,20.40
2023-05-18T14:17:18.693Z,20.20
2023-05-18T14:19:45.356Z,20.00
2023-05-18T14:22:11.999Z,19.90
2023-05-18T14:24:38.581Z,19.60
2023-05-18T14:27:05.321Z,19.20
2023-05-18T14:29:35.261Z,19.10
2023-05-18T14:32:02.713Z,19.10
2023-05-18T14:34:29.373Z,19.30
2023-05-18T14:36:56.043Z,19.50
2023-05-18T14:39:22.633Z,19.60
2023-05-18T14:41:49.292Z,19.70
2023-05-18T14:44:15.875Z,19.70
2023-05-18T14:46:43.081Z,19.70
2023-05-18T14:49:09.964Z,19.60
2023-05-18T14:51:36.694Z,19.50
2023-05-18T14:54:03.402Z,19.40
2023-05-18T14:56:30.402Z,19.40
2023-05-18T14:58:57.131Z,19.40
2023-05-18T15:01:23.987Z,19.50
2023-05-18T15:03:50.735Z,19.40
2023-05-18T15:06:17.502Z,19.20
2023-05-18T15:08:45.196Z,19.10
2023-05-18T15:11:11.793Z,19.00
2023-05-18T15:13:40.439Z,18.90
2023-05-18T15:16:07.497Z,18.70
2023-05-18T15:18:34.196Z,18.50
2023-05-18T15:21:00.843Z,18.30
2023-05-18T15:23:27.474Z,18.20
2023-05-18T15:25:54.300Z,18.10
2023-05-18T15:28:21.276Z,18.00
2023-05-18T15:30:47.887Z,17.90
2023-05-18T15:33:14.521Z,17.90
2023-05-18T15:35:41.227Z,17.80
2023-05-18T15:38:07.924Z,17.80
2023-05-18T15:40:34.573Z,17.60
2023-05-18T15:43:01.195Z,17.50
2023-05-18T15:45:27.826Z,17.40
2023-05-18T15:47:54.463Z,17.30
2023-05-18T15:50:21.122Z,17.20
2023-05-18T15:52:47.754Z,17.00
2023-05-18T15:55:14.333Z,16.80
2023-05-18T15:57:40.917Z,16.70
2023-05-18T16:00:08.449Z,16.60
2023-05-18T16:02:35.080Z,16.50
2023-05-18T16:05:01.734Z,16.50
2023-05-18T16:07:28.446Z,16.40
2023-05-18T16:09:55.057Z,16.30
2023-05-18T16:12:21.664Z,16.30
2023-05-18T16:14:48.416Z,16.20
2023-05-18T16:17:15.292Z,16.10
2023-05-18T16:19:41.905Z,16.10
2023-05-18T16:22:09.160Z,16.00
2023-05-18T16:24:36.071Z,15.90
2023-05-18T16:27:02.707Z,15.90
2023-05-18T16:29:29.343Z,15.90
2023-05-18T16:31:56.192Z,15.80
2023-05-18T16:34:22.813Z,15.80
2023-05-18T16:36:49.452Z,15.80
2023-05-18T16:39:16.174Z,15.70
2023-05-18T16:41:42.798Z,15.70
2023-05-18T16:44:09.651Z,15.60
2023-05-18T16:46:36.339Z,15.60
2023-05-18T16:49:03.178Z,15.60
2023-05-18T16:51:29.880Z,15.50
2023-05-18T16:53:56.527Z,15.40
2023-05-18T16:56:23.372Z,15.40
2023-05-18T16:58:52.379Z,15.30
2023-05-18T17:03:53.326Z,15.30
2023-05-18T17:06:21.105Z,15.20
2023-05-18T17:08:47.734Z,15.10
2023-05-18T17:11:14.404Z,15.10
2023-05-18T17:13:41.061Z,15.00
2023-05-18T17:16:07.812Z,15.00
2023-05-18T17:18:34.474Z,14.90
2023-05-18T17:21:01.073Z,14.80
2023-05-18T17:23:27.727Z,14.80
2023-05-18T17:26:00.874Z,14.70
2023-05-18T17:28:32.186Z,14.60
2023-05-18T17:30:58.839Z,14.50
2023-05-18T17:33:25.510Z,14.40
2023-05-18T17:35:52.160Z,14.30
2023-05-18T17:38:21.480Z,14.20
2023-05-18T17:40:48.527Z,14.10
2023-05-18T17:43:15.131Z,14.10
2023-05-18T17:45:42.003Z,13.90
2023-05-18T17:48:08.782Z,13.80
2023-05-18T17:50:37.545Z,13.70
2023-05-18T17:53:04.875Z,13.60
2023-05-18T17:55:31.916Z,13.50
2023-05-18T17:58:00.854Z,13.40
2023-05-18T18:00:27.575Z,13.30
2023-05-18T18:02:55.114Z,13.20
2023-05-18T18:05:22.206Z,13.10
2023-05-18T18:07:48.822Z,13.00
2023-05-18T18:10:15.454Z,12.90
2023-05-18T18:12:42.611Z,12.80
2023-05-18T18:15:09.948Z,12.80
2023-05-18T18:17:36.649Z,12.60
2023-05-18T18:20:05.567Z,12.50
2023-05-18T18:22:33.598Z,12.40
2023-05-18T18:25:01.753Z,12.30
2023-05-18T18:27:28.381Z,12.20
2023-05-18T18:29:55.579Z,12.10
2023-05-18T18:32:22.212Z,12.00
2023-05-18T18:34:48.816Z,11.90
2023-05-18T18:37:15.687Z,11.90
2023-05-18T18:39:42.311Z,11.80
2023-05-18T18:42:08.986Z,11.70
2023-05-18T18:44:35.732Z,11.60
2023-05-18T18:47:02.619Z,11.50
2023-05-18T18:49:29.404Z,11.40
2023-05-18T18:51:58.593Z,11.30
2023-05-18T18:54:26.455Z,11.20
2023-05-18T18:56:53.156Z,11.20
2023-05-18T18:59:19.819Z,11.10
2023-05-18T19:01:46.670Z,10.90
2023-05-18T19:04:13.479Z,10.80
2023-05-18T19:06:40.174Z,10.80
2023-05-18T19:09:06.938Z,10.70
2023-05-18T19:11:33.755Z,10.60
2023-05-18T19:14:00.554Z,10.50
2023-05-18T19:16:27.397Z,10.50
2023-05-18T19:18:54.126Z,10.40
2023-05-18T19:21:21.360Z,10.40
2023-05-18T19:23:48.004Z,10.30
2023-05-18T19:26:14.655Z,10.20
2023-05-18T19:28:42.027Z,10.10
2023-05-18T19:31:11.508Z,10.10
2023-05-18T19:33:38.166Z,10.00
2023-05-18T19:36:05.028Z,9.90
2023-05-18T19:38:31.648Z,9.90
2023-05-18T19:40:58.253Z,9.80
2023-05-18T19:43:25.693Z,9.70
2023-05-18T19:45:52.374Z,9.70
2023-05-18T19:48:19.293Z,9.60
2023-05-18T19:50:46.031Z,9.60
2023-05-18T19:53:12.692Z,9.60
2023-05-18T19:55:39.471Z,9.50
2023-05-18T19:58:06.410Z,9.50
2023-05-18T20:00:33.640Z,9.40
2023-05-18T20:03:03.525Z,9.40
2023-05-18T20:05:30.291Z,9.40
2023-05-18T20:07:58.078Z,9.30
2023-05-18T20:10:25.277Z,9.30
2023-05-18T20:12:51.939Z,9.20
2023-05-18T20:15:19.038Z,9.20
2023-05-18T20:17:46.023Z,9.10
2023-05-18T20:20:12.736Z,9.10
2023-05-18T20:22:39.561Z,9.10
2023-05-18T20:25:06.797Z,9.10
2023-05-18T20:27:33.389Z,9.00
2023-05-18T20:30:00.508Z,9.00
2023-05-18T20:32:27.228Z,9.00
2023-05-18T20:34:53.860Z,9.00
2023-05-18T20:37:20.561Z,8.90
2023-05-18T20:39:50.539Z,8.90
2023-05-18T20:42:21.929Z,8.90
2023-05-18T20:44:51.206Z,8.90
2023-05-18T20:47:20.170Z,8.80
2023-05-18T20:49:47.578Z,8.80
2023-05-18T20:52:14.354Z,8.80
2023-05-18T20:54:41.157Z,8.80
2023-05-18T20:57:07.791Z,8.80
2023-05-18T20:59:34.479Z,8.80
2023-05-18T21:02:01.209Z,8.70
2023-05-18T21:04:27.914Z,8.70
2023-05-18T21:06:54.556Z,8.70
2023-05-18T21:09:21.449Z,8.70
2023-05-18T21:11:48.557Z,8.60
2023-05-18T21:14:15.798Z,8.60
2023-05-18T21:16:42.570Z,8.60
2023-05-18T21:19:09.364Z,8.50
2023-05-18T21:21:36.052Z,8.60
2023-05-18T21:24:02.706Z,8.50
2023-05-18T21:26:29.331Z,8.60
2023-05-18T21:28:56.043Z,8.60
2023-05-18T21:31:22.877Z,8.60
2023-05-18T21:33:51.006Z,8.60
2023-05-18T21:36:19.780Z,8.50
2023-05-18T21:38:46.611Z,8.50
2023-05-18T21:41:13.211Z,8.50
2023-05-18T21:43:39.909Z,8.50
2023-05-18T21:46:09.239Z,8.50
2023-05-18T21:48:36.186Z,8.50
2023-05-18T21:51:04.395Z,8.50
2023-05-18T21:53:31.100Z,8.40
2023-05-18T21:55:57.929Z,8.40
2023-05-18T21:58:24.962Z,8.40
2023-05-18T22:00:52.016Z,8.40
2023-05-18T22:03:18.762Z,8.40
2023-05-18T22:05:45.549Z,8.30
2023-05-18T22:08:12.171Z,8.30
2023-05-18T22:10:38.845Z,8.40
2023-05-18T22:13:05.455Z,8.30
2023-05-18T22:15:32.713Z,8.30
2023-05-18T22:18:01.798Z,8.30
2023-05-18T22:20:29.518Z,8.30
2023-05-18T22:22:56.261Z,8.30
2023-05-18T22:25:24.752Z,8.30
2023-05-18T22:27:54.872Z,8.30
2023-05-18T22:30:23.794Z,8.30
2023-05-18T22:32:50.947Z,8.20
2023-05-18T22:35:17.702Z,8.20
2023-05-18T22:37:44.857Z,8.20
2023-05-18T22:40:11.959Z,8.20
2023-05-18T22:42:38.593Z,8.10
2023-05-18T22:45:06.035Z,8.10
2023-05-18T22:47:33.632Z,8.10
2023-05-18T22:50:00.371Z,8.10
2023-05-18T22:52:27.871Z,8.00
2023-05-18T22:54:54.537Z,8.00
2023-05-18T22:57:21.185Z,7.90
2023-05-18T22:59:47.843Z,7.90
2023-05-18T23:02:14.802Z,7.90
2023-05-18T23:04:41.718Z,7.80
2023-05-18T23:07:08.413Z,7.80
2023-05-18T23:09:38.259Z,7.70
2023-05-18T23:12:06.129Z,7.60
2023-05-18T23:14:33.744Z,7.60
2023-05-18T23:17:00.761Z,7.60
2023-05-18T23:19:27.870Z,7.50
2023-05-18T23:21:54.859Z,7.50
2023-05-18T23:24:21.928Z,7.50
2023-05-18T23:26:48.562Z,7.50
2023-05-18T23:29:15.347Z,7.40
2023-05-18T23:31:41.987Z,7.40
2023-05-18T23:34:08.937Z,7.30
2023-05-18T23:36:38.837Z,7.30
2023-05-18T23:39:05.848Z,7.30
2023-05-18T23:41:35.672Z,7.30
2023-05-18T23:44:02.904Z,7.20
2023-05-18T23:46:30.086Z,7.20
2023-05-18T23:48:59.457Z,7.20
2023-05-18T23:51:30.735Z,7.20
2023-05-18T23:53:58.577Z,7.20
2023-05-18T23:56:25.395Z,7.20
2023-05-18T23:58:52.490Z,7.10
